EGAC/BHD METAR and TAF weather

Enter ICAO airport designator
Station Type Date Time Source
EGAC METAR 2020/07/12 18:20 UTC NOAA

EGAC 121820Z AUTO 21011KT 9999 BKN025/// 17/12 Q1022


Station Type Date Time Source
EGAC Decoded METAR 2020/07/12 18:20 UTC NOAA

Belfast / Harbour, United Kingdom (EGAC) 54-36N 005-53W 0M
Jul 12, 2020 - 02:20 PM EDT / 2020.07.12 1820 UTC
Wind: from the SSW (210 degrees) at 13 MPH (11 KT):0
Visibility: greater than 7 mile(s):0
Sky conditions: mostly cloudy
Temperature: 62 F (17 C)
Dew Point: 53 F (12 C)
Relative Humidity: 72%
Pressure (altimeter): 30.18 in. Hg (1022 hPa)
ob: EGAC 121820Z AUTO 21011KT 9999 BKN025/// 17/12 Q1022
cycle: 18

Station Type Date Time Source
EGAC TAF UTC NOAA

Error!

Example: see airport list